Time;durP1;ratioP1;P1;durP2;ratioP2;P2;SDS_P1;SDS_P2;PMS_P1;PMS_P2;Temp;Humidity;BMP_temperature;BMP_pressure;BME280_temperature;BME280_humidity;BME280_pressure;Samples;Min_cycle;Max_cycle;Signal;HPM_P1;HPM_P2
2022/01/28 00:02:39;;;;;;;17.55;2.80;;;4.80;99.90;;;;;;5069262;28;20483;-71
2022/01/28 00:05:01;;;;;;;25.77;3.47;;;4.60;99.90;;;;;;5058478;28;20444;-69
2022/01/28 00:07:27;;;;;;;23.88;3.00;;;4.50;99.90;;;;;;5060472;28;20111;-70
2022/01/28 00:09:52;;;;;;;27.20;3.40;;;4.60;99.90;;;;;;5085934;28;20109;-72
2022/01/28 00:12:18;;;;;;;17.63;2.38;;;4.50;99.90;;;;;;5074917;28;20039;-74
2022/01/28 00:15:22;;;;;;;22.30;3.10;;;4.50;99.90;;;;;;5074344;28;20037;-72
2022/01/28 00:36:44;;;;;;;29.60;3.60;;;4.30;99.90;;;;;;5064519;28;20090;-71
2022/01/28 00:39:09;;;;;;;30.45;3.47;;;4.40;99.90;;;;;;5056155;28;20036;-70
2022/01/28 00:41:35;;;;;;;20.42;2.58;;;4.40;99.90;;;;;;5057510;28;20419;-73
2022/01/28 00:44:00;;;;;;;23.67;2.67;;;4.50;99.90;;;;;;5077349;28;20189;-71
2022/01/28 00:46:26;;;;;;;25.35;2.72;;;4.50;99.90;;;;;;5076085;28;20047;-70
2022/01/28 00:48:51;;;;;;;26.88;3.42;;;4.50;99.90;;;;;;5079067;28;20755;-71
2022/01/28 00:51:17;;;;;;;25.50;2.63;;;4.50;99.90;;;;;;5075627;28;20482;-73
2022/01/28 00:53:42;;;;;;;22.42;2.53;;;4.50;99.90;;;;;;5082728;28;20177;-69
2022/01/28 00:56:08;;;;;;;15.85;3.03;;;4.50;99.90;;;;;;5077313;28;20051;-74
2022/01/28 00:58:33;;;;;;;34.95;4.03;;;4.50;99.90;;;;;;5075835;28;20494;-73
2022/01/28 01:00:59;;;;;;;43.03;3.15;;;4.40;99.90;;;;;;5072201;28;20497;-71
2022/01/28 01:03:25;;;;;;;24.05;2.67;;;4.40;99.90;;;;;;5061333;28;20055;-72
2022/01/28 01:05:50;;;;;;;40.30;4.82;;;4.40;99.90;;;;;;5057958;28;20039;-73
2022/01/28 01:08:16;;;;;;;37.03;3.67;;;4.40;99.90;;;;;;5074158;28;20423;-72
2022/01/28 01:10:41;;;;;;;27.77;3.40;;;4.30;99.90;;;;;;5054098;28;20049;-74
2022/01/28 01:13:08;;;;;;;16.27;2.60;;;4.30;99.90;;;;;;5086178;28;20044;-72
2022/01/28 01:15:38;;;;;;;23.50;2.58;;;4.40;99.90;;;;;;5062288;28;20064;-69
2022/01/28 01:18:13;;;;;;;21.70;2.78;;;4.50;99.90;;;;;;5093208;28;20066;-71
2022/01/28 01:23:14;;;;;;;43.88;4.25;;;4.70;99.90;;;;;;5053682;28;20044;-71
2022/01/28 01:25:50;;;;;;;32.05;3.55;;;4.80;99.90;;;;;;5057664;28;20419;-73
2022/01/28 01:28:19;;;;;;;34.25;4.75;;;4.80;99.90;;;;;;5065735;28;20047;-74
2022/01/28 01:30:46;;;;;;;35.05;3.45;;;4.80;99.90;;;;;;5055133;28;20041;-69
2022/01/28 01:33:12;;;;;;;28.23;4.50;;;4.80;99.90;;;;;;5059496;28;20045;-74
2022/01/28 01:35:39;;;;;;;22.27;3.10;;;4.80;99.90;;;;;;5061662;28;20053;-70
2022/01/28 01:38:06;;;;;;;27.80;3.53;;;4.80;99.90;;;;;;5067327;28;20036;-69
2022/01/28 01:40:40;;;;;;;25.92;3.50;;;4.80;99.90;;;;;;5062161;28;20044;-72
2022/01/28 01:43:12;;;;;;;34.28;3.33;;;4.80;99.90;;;;;;5078084;28;20050;-68
2022/01/28 01:45:53;;;;;;;31.85;3.28;;;4.80;99.90;;;;;;5054421;28;20467;-72
2022/01/28 01:53:47;;;;;;;26.13;2.13;;;4.80;99.90;;;;;;5079177;28;20509;-75
2022/01/28 01:56:13;;;;;;;20.58;2.72;;;4.70;99.90;;;;;;5091110;28;20123;-72
2022/01/28 01:58:40;;;;;;;36.28;3.42;;;4.70;99.90;;;;;;5049495;28;20038;-73
2022/01/28 02:01:05;;;;;;;20.25;1.98;;;4.60;99.90;;;;;;5072726;28;20040;-71
2022/01/28 02:03:31;;;;;;;33.47;3.50;;;4.60;99.90;;;;;;5088695;28;20368;-73
2022/01/28 02:05:58;;;;;;;34.63;4.43;;;4.70;99.90;;;;;;5068051;28;20400;-73
2022/01/28 02:08:26;;;;;;;26.70;3.22;;;4.70;99.90;;;;;;5073425;28;20072;-69
2022/01/28 02:10:56;;;;;;;27.45;3.15;;;4.80;99.90;;;;;;5076328;28;20467;-71
2022/01/28 02:13:22;;;;;;;22.45;2.97;;;4.90;99.90;;;;;;5101865;28;20047;-73
2022/01/28 02:15:48;;;;;;;29.92;3.65;;;4.90;99.90;;;;;;5092322;28;20044;-69
2022/01/28 02:18:13;;;;;;;37.95;3.45;;;4.90;99.90;;;;;;5088584;28;20050;-75
2022/01/28 02:20:42;;;;;;;41.88;5.07;;;4.90;99.90;;;;;;5064752;28;20451;-73
2022/01/28 02:23:08;;;;;;;29.65;3.42;;;4.80;99.90;;;;;;5055452;28;20119;-74
2022/01/28 02:25:34;;;;;;;27.70;3.05;;;4.70;99.90;;;;;;5091366;28;20463;-72
2022/01/28 02:28:03;;;;;;;18.38;3.08;;;4.70;99.90;;;;;;5063397;28;20043;-70
2022/01/28 02:30:29;;;;;;;33.40;3.63;;;4.70;99.90;;;;;;5099952;28;20127;-71
2022/01/28 02:33:08;;;;;;;23.35;3.13;;;4.70;99.90;;;;;;5062283;28;20131;-74
2022/01/28 02:35:34;;;;;;;32.95;2.90;;;4.70;99.90;;;;;;5064206;28;20090;-72
2022/01/28 02:37:59;;;;;;;36.65;3.15;;;4.70;99.90;;;;;;5062114;28;20036;-74
2022/01/28 02:40:25;;;;;;;30.67;3.50;;;4.60;99.90;;;;;;5067095;28;20036;-75
2022/01/28 02:43:02;;;;;;;25.98;2.92;;;4.60;99.90;;;;;;5071892;28;20041;-70
2022/01/28 02:45:34;;;;;;;31.92;3.33;;;4.60;99.90;;;;;;5067022;28;20040;-72
2022/01/28 02:48:04;;;;;;;20.70;2.78;;;4.70;99.90;;;;;;5086266;28;20424;-73
2022/01/28 02:50:37;;;;;;;29.23;2.75;;;4.70;99.90;;;;;;5055253;28;20051;-74
2022/01/28 02:53:07;;;;;;;37.58;5.68;;;4.80;99.90;;;;;;5062142;28;20041;-73
2022/01/28 02:55:38;;;;;;;35.83;3.88;;;4.80;99.90;;;;;;5057947;28;20044;-72
2022/01/28 02:58:22;;;;;;;22.85;3.38;;;4.80;99.90;;;;;;5063542;28;20078;-72
2022/01/28 03:00:49;;;;;;;29.83;3.30;;;4.90;99.90;;;;;;5066006;28;20406;-75
2022/01/28 03:03:18;;;;;;;24.80;3.03;;;4.90;99.90;;;;;;5078543;28;20039;-74
2022/01/28 03:05:43;;;;;;;26.77;3.25;;;4.90;99.90;;;;;;5084007;28;20036;-72
2022/01/28 03:08:09;;;;;;;28.73;4.13;;;5.00;99.90;;;;;;5091380;28;20438;-72
2022/01/28 03:15:33;;;;;;;24.08;2.88;;;5.20;99.90;;;;;;5059679;28;20036;-71
2022/01/28 03:18:12;;;;;;;30.02;3.97;;;5.30;99.90;;;;;;5096212;28;20063;-71
2022/01/28 03:20:44;;;;;;;23.75;3.33;;;5.20;99.90;;;;;;5055297;28;20376;-71
2022/01/28 03:23:11;;;;;;;22.23;1.95;;;5.20;99.90;;;;;;5051771;28;20055;-74
2022/01/28 03:25:41;;;;;;;22.65;3.53;;;5.20;99.90;;;;;;5060101;28;20063;-74
2022/01/28 03:28:07;;;;;;;21.63;2.33;;;5.20;99.90;;;;;;5057484;28;20483;-71
2022/01/28 03:30:32;;;;;;;26.77;2.95;;;5.20;99.90;;;;;;5081498;28;20044;-74
2022/01/28 03:32:58;;;;;;;26.17;2.42;;;5.20;99.90;;;;;;5095443;28;20040;-72
2022/01/28 03:35:24;;;;;;;26.40;3.72;;;5.20;99.90;;;;;;5068008;28;20539;-74
2022/01/28 03:37:58;;;;;;;16.85;1.75;;;5.20;99.90;;;;;;5093031;28;20106;-73
2022/01/28 03:40:24;;;;;;;14.45;2.20;;;5.20;99.90;;;;;;5065769;28;20134;-72
2022/01/28 03:42:49;;;;;;;23.92;2.45;;;5.20;99.90;;;;;;5072321;28;20123;-73
2022/01/28 03:45:15;;;;;;;17.42;2.58;;;5.20;99.90;;;;;;5089268;28;20119;-72
2022/01/28 03:47:41;;;;;;;25.83;3.25;;;5.20;99.90;;;;;;5055673;28;20052;-70
2022/01/28 03:50:07;;;;;;;21.88;2.10;;;5.20;99.90;;;;;;5064813;28;20040;-70
2022/01/28 03:52:32;;;;;;;16.38;2.45;;;5.10;99.90;;;;;;5063217;28;20077;-70
2022/01/28 03:54:58;;;;;;;16.15;1.80;;;5.20;99.90;;;;;;5069801;28;20087;-71
2022/01/28 03:57:23;;;;;;;30.58;2.60;;;5.10;99.90;;;;;;5091653;28;20039;-73
2022/01/28 03:59:49;;;;;;;31.20;3.97;;;5.10;99.90;;;;;;5078366;28;20442;-70
2022/01/28 04:02:19;;;;;;;23.55;2.60;;;5.00;99.90;;;;;;5052829;28;20040;-72
2022/01/28 04:12:43;;;;;;;39.08;2.97;;;4.90;99.90;;;;;;5059818;28;20051;-72
2022/01/28 04:17:51;;;;;;;31.23;2.97;;;4.80;99.90;;;;;;5061994;28;20098;-70
2022/01/28 04:20:17;;;;;;;30.00;2.80;;;4.80;99.90;;;;;;5073463;28;20067;-72
2022/01/28 04:22:43;;;;;;;29.65;3.67;;;4.90;99.90;;;;;;5062036;28;20044;-69
2022/01/28 04:25:09;;;;;;;36.85;3.30;;;5.00;99.90;;;;;;5065721;28;20032;-72
2022/01/28 04:27:34;;;;;;;36.65;4.55;;;5.00;99.90;;;;;;5054684;28;20033;-71
2022/01/28 04:30:00;;;;;;;30.38;3.47;;;5.00;99.90;;;;;;5062318;28;20086;-70
2022/01/28 04:32:28;;;;;;;28.15;2.80;;;5.00;99.90;;;;;;5061386;28;20040;-74
2022/01/28 04:34:54;;;;;;;19.67;2.97;;;4.90;99.90;;;;;;5083441;28;20055;-73
2022/01/28 04:37:35;;;;;;;34.55;3.58;;;4.90;99.90;;;;;;5085599;28;20109;-70
2022/01/28 04:43:02;;;;;;;49.63;4.80;;;4.70;99.90;;;;;;5069675;28;20032;-72
2022/01/28 04:45:27;;;;;;;37.00;4.43;;;4.60;99.90;;;;;;5093291;28;20446;-71
2022/01/28 04:48:08;;;;;;;44.22;4.15;;;4.50;99.90;;;;;;5088409;28;20124;-73
2022/01/28 04:53:31;;;;;;;40.45;4.60;;;4.60;99.90;;;;;;5064873;28;20049;-72
2022/01/28 04:56:11;;;;;;;39.80;3.65;;;4.70;99.90;;;;;;5068061;28;20108;-73
2022/01/28 04:58:52;;;;;;;32.63;4.85;;;4.80;99.90;;;;;;5089509;28;20124;-73
2022/01/28 05:04:49;;;;;;;37.88;3.92;;;4.80;99.90;;;;;;5058508;28;20106;-74
2022/01/28 05:07:30;;;;;;;55.22;6.43;;;4.70;99.90;;;;;;5055930;28;20246;-71
2022/01/28 05:15:32;;;;;;;25.15;3.08;;;4.70;99.90;;;;;;5079773;28;20047;-73
2022/01/28 05:26:36;;;;;;;32.60;3.85;;;5.00;99.90;;;;;;5047099;28;20044;-73
2022/01/28 05:29:02;;;;;;;28.35;3.75;;;5.00;99.90;;;;;;5063550;28;20076;-69
2022/01/28 05:31:27;;;;;;;31.25;4.22;;;5.00;99.90;;;;;;5099664;28;20044;-72
2022/01/28 05:33:53;;;;;;;16.48;3.05;;;5.00;99.90;;;;;;5077003;28;20044;-71
2022/01/28 05:36:19;;;;;;;31.00;3.78;;;5.10;99.90;;;;;;5083161;28;20490;-74
2022/01/28 05:38:45;;;;;;;46.92;4.00;;;5.10;99.90;;;;;;5073145;28;20036;-73
2022/01/28 05:41:10;;;;;;;34.00;3.53;;;5.10;99.90;;;;;;5084194;28;20035;-74
2022/01/28 05:43:36;;;;;;;29.48;3.38;;;5.20;99.90;;;;;;5083108;28;20131;-72
2022/01/28 05:46:02;;;;;;;32.50;3.85;;;5.20;99.90;;;;;;5083025;28;20126;-73
2022/01/28 05:48:27;;;;;;;24.92;3.10;;;5.20;99.90;;;;;;5086508;28;20037;-72
2022/01/28 05:50:53;;;;;;;32.13;4.03;;;5.20;99.90;;;;;;5072407;28;20040;-74
2022/01/28 05:53:18;;;;;;;29.90;3.35;;;5.20;99.90;;;;;;5076313;28;20044;-73
2022/01/28 05:55:44;;;;;;;34.50;5.03;;;5.20;99.90;;;;;;5090779;28;20085;-73
2022/01/28 05:58:09;;;;;;;31.48;3.75;;;5.20;99.90;;;;;;5074735;28;20036;-72
2022/01/28 06:00:35;;;;;;;32.17;3.50;;;5.10;99.90;;;;;;5068188;28;20043;-72
2022/01/28 06:03:01;;;;;;;40.97;4.40;;;5.00;99.90;;;;;;5085717;28;20040;-73
2022/01/28 06:05:30;;;;;;;36.85;4.03;;;4.90;99.90;;;;;;5097450;28;20036;-73
2022/01/28 06:07:57;;;;;;;39.08;4.35;;;4.90;99.90;;;;;;5083622;28;20040;-73
2022/01/28 06:10:22;;;;;;;39.13;3.80;;;4.80;99.90;;;;;;5074417;28;20052;-73
2022/01/28 06:12:48;;;;;;;46.80;4.43;;;4.60;99.90;;;;;;5077756;28;20056;-72
2022/01/28 06:15:14;;;;;;;54.90;4.82;;;4.50;99.90;;;;;;5046380;28;20037;-74
2022/01/28 06:17:40;;;;;;;47.78;5.13;;;4.50;99.90;;;;;;5070318;28;20044;-75
2022/01/28 06:20:08;;;;;;;49.20;6.82;;;4.50;99.90;;;;;;5070912;28;20417;-73
2022/01/28 06:22:41;;;;;;;36.40;4.43;;;4.50;99.90;;;;;;5074253;28;20033;-72
2022/01/28 06:25:08;;;;;;;50.13;5.72;;;4.40;99.90;;;;;;5080955;28;20051;-74
2022/01/28 06:27:34;;;;;;;35.53;4.13;;;4.30;99.90;;;;;;5066341;28;20040;-75
2022/01/28 06:29:59;;;;;;;40.28;3.83;;;4.20;99.90;;;;;;5085804;28;20033;-75
2022/01/28 06:32:25;;;;;;;46.50;4.25;;;4.00;99.90;;;;;;5078825;28;20340;-75
2022/01/28 06:34:50;;;;;;;47.20;5.88;;;3.90;99.90;;;;;;5087931;28;20041;-74
2022/01/28 06:37:16;;;;;;;64.75;7.03;;;3.80;99.90;;;;;;5061796;28;20063;-73
2022/01/28 06:39:42;;;;;;;50.15;4.75;;;3.70;99.90;;;;;;5064492;28;20047;-74
2022/01/28 06:42:07;;;;;;;44.05;4.25;;;3.70;99.90;;;;;;5069689;28;20033;-75
2022/01/28 06:44:33;;;;;;;36.33;3.30;;;3.70;99.90;;;;;;5065463;28;20353;-72
2022/01/28 06:46:59;;;;;;;37.67;3.53;;;3.60;99.90;;;;;;5084547;28;20033;-75
2022/01/28 06:49:24;;;;;;;46.65;4.75;;;3.60;99.90;;;;;;5076825;28;20037;-74
2022/01/28 06:51:50;;;;;;;29.55;3.65;;;3.50;99.90;;;;;;5084356;28;20105;-73
2022/01/28 06:54:15;;;;;;;34.60;4.45;;;3.50;99.90;;;;;;5081421;28;20041;-72
2022/01/28 06:56:41;;;;;;;37.95;5.30;;;3.50;99.90;;;;;;5084884;28;20033;-73
2022/01/28 06:59:06;;;;;;;39.75;4.35;;;3.40;99.90;;;;;;5064414;28;20052;-72
2022/01/28 07:01:32;;;;;;;38.95;3.90;;;3.40;99.90;;;;;;5075336;28;20059;-74
2022/01/28 07:03:57;;;;;;;48.05;5.13;;;3.40;99.90;;;;;;5070192;28;20041;-75
2022/01/28 07:06:23;;;;;;;43.65;6.15;;;3.30;99.90;;;;;;5070634;28;20048;-75
2022/01/28 07:08:49;;;;;;;52.28;4.78;;;3.30;99.90;;;;;;5069345;28;20036;-75
2022/01/28 07:11:14;;;;;;;36.65;4.75;;;3.20;99.90;;;;;;5068842;28;20044;-74
2022/01/28 07:13:40;;;;;;;50.28;4.97;;;3.20;99.90;;;;;;5073837;28;20049;-75
2022/01/28 07:16:06;;;;;;;39.72;4.30;;;3.10;99.90;;;;;;5059608;28;20055;-75
2022/01/28 07:18:31;;;;;;;41.45;3.90;;;3.00;99.90;;;;;;5068214;28;20055;-75
2022/01/28 07:20:57;;;;;;;37.88;5.35;;;3.00;99.90;;;;;;5065270;28;20040;-75
2022/01/28 07:23:22;;;;;;;49.75;4.65;;;3.00;99.90;;;;;;5066724;28;20048;-75
2022/01/28 07:25:48;;;;;;;34.17;5.00;;;3.00;99.90;;;;;;5067071;28;20147;-75
2022/01/28 07:28:15;;;;;;;39.95;4.20;;;3.00;99.90;;;;;;5064855;28;20045;-74
2022/01/28 07:30:40;;;;;;;49.88;4.95;;;3.00;99.90;;;;;;5091696;28;20503;-75
2022/01/28 07:33:08;;;;;;;45.75;5.32;;;3.00;99.90;;;;;;5085028;28;20122;-75
2022/01/28 07:35:34;;;;;;;42.05;5.68;;;3.00;99.90;;;;;;5073780;28;20040;-75
2022/01/28 07:38:00;;;;;;;50.13;4.25;;;3.00;99.90;;;;;;5081483;28;20059;-74
2022/01/28 07:40:25;;;;;;;56.88;4.97;;;3.00;99.90;;;;;;5090506;28;20036;-74
2022/01/28 07:42:51;;;;;;;49.40;5.97;;;3.00;99.90;;;;;;5093812;28;20494;-75
2022/01/28 07:45:17;;;;;;;38.53;5.43;;;2.90;99.90;;;;;;5076449;28;20119;-75
2022/01/28 07:47:43;;;;;;;61.15;6.40;;;2.90;99.90;;;;;;5076694;28;20024;-75
2022/01/28 07:50:11;;;;;;;51.47;5.63;;;2.80;99.90;;;;;;5093172;28;20071;-74
2022/01/28 07:56:17;;;;;;;52.88;6.15;;;2.70;99.90;;;;;;5074280;28;20150;-74
2022/01/28 07:58:43;;;;;;;49.65;5.68;;;2.70;99.90;;;;;;5073292;28;20033;-73
2022/01/28 08:01:09;;;;;;;45.10;6.10;;;2.80;99.90;;;;;;5072705;28;20437;-74
2022/01/28 08:07:15;;;;;;;52.88;6.03;;;2.80;99.90;;;;;;5074292;28;20074;-73
2022/01/28 08:09:40;;;;;;;37.90;5.18;;;2.80;99.90;;;;;;5056522;28;20045;-73
2022/01/28 08:15:47;;;;;;;51.28;6.55;;;2.80;99.90;;;;;;5073864;28;20541;-74
2022/01/28 08:21:54;;;;;;;41.42;6.05;;;2.80;99.90;;;;;;5073584;28;20085;-74
2022/01/28 08:28:11;;;;;;;45.60;5.22;;;2.80;99.90;;;;;;5072800;28;20098;-75
2022/01/28 08:30:38;;;;;;;59.33;6.35;;;2.80;99.90;;;;;;5089628;28;20055;-75
2022/01/28 08:33:05;;;;;;;63.95;6.60;;;2.80;99.90;;;;;;5081773;28;20525;-73
2022/01/28 08:35:34;;;;;;;57.33;7.72;;;2.80;99.90;;;;;;5092410;28;20028;-74
2022/01/28 08:38:24;;;;;;;53.60;6.80;;;2.90;99.90;;;;;;5077338;28;20041;-73
2022/01/28 08:40:52;;;;;;;50.17;7.28;;;3.00;99.90;;;;;;5072182;28;20098;-74
2022/01/28 08:43:17;;;;;;;54.50;7.28;;;3.00;99.90;;;;;;5069782;28;20125;-73
2022/01/28 08:45:48;;;;;;;54.75;7.95;;;3.00;99.90;;;;;;5071968;28;20076;-73
2022/01/28 08:48:14;;;;;;;50.17;5.60;;;3.10;99.90;;;;;;5071436;28;20097;-73
2022/01/28 08:50:39;;;;;;;45.53;6.05;;;3.10;99.90;;;;;;5071754;28;20041;-74
2022/01/28 08:53:05;;;;;;;47.17;5.47;;;3.20;99.90;;;;;;5063280;28;20090;-75
2022/01/28 08:55:31;;;;;;;54.90;5.50;;;3.30;99.90;;;;;;5067967;28;20036;-74
2022/01/28 08:57:57;;;;;;;56.05;5.85;;;3.30;99.90;;;;;;5068523;28;20033;-72
2022/01/28 09:00:23;;;;;;;51.08;5.93;;;3.40;99.90;;;;;;5069283;28;20030;-73
2022/01/28 09:03:40;;;;;;;53.83;6.10;;;3.40;99.90;;;;;;5055336;28;20037;-73
2022/01/28 09:06:05;;;;;;;54.38;7.18;;;3.50;99.90;;;;;;5051726;28;20372;-73
2022/01/28 09:08:31;;;;;;;58.58;5.85;;;3.60;99.90;;;;;;5040364;28;20040;-75
2022/01/28 09:10:58;;;;;;;50.45;6.78;;;3.70;99.90;;;;;;5071267;28;20044;-78
2022/01/28 09:13:27;;;;;;;55.72;5.93;;;3.90;99.90;;;;;;5071624;28;20051;-75
2022/01/28 09:19:33;;;;;;;59.00;7.55;;;4.10;99.90;;;;;;5072366;28;20035;-75
2022/01/28 09:21:59;;;;;;;52.95;7.75;;;4.10;99.90;;;;;;5059395;28;20041;-75
2022/01/28 09:24:24;;;;;;;59.53;7.50;;;4.10;99.90;;;;;;5051393;28;20467;-75
2022/01/28 09:26:51;;;;;;;44.90;6.03;;;4.10;99.90;;;;;;5065210;28;20044;-74
2022/01/28 09:29:17;;;;;;;45.60;6.85;;;4.20;99.90;;;;;;5087379;28;20089;-74
2022/01/28 09:31:43;;;;;;;47.92;6.90;;;4.20;99.90;;;;;;5051811;28;20041;-74
2022/01/28 09:34:08;;;;;;;69.18;12.75;;;4.40;99.90;;;;;;5051487;28;20040;-74
2022/01/28 09:40:28;;;;;;;61.13;7.88;;;4.60;99.90;;;;;;5051533;28;20032;-75
2022/01/28 09:43:14;;;;;;;64.00;7.60;;;4.70;99.90;;;;;;5066388;28;20051;-74
2022/01/28 09:45:40;;;;;;;64.55;8.60;;;4.80;99.90;;;;;;5069771;28;20040;-74
2022/01/28 09:48:05;;;;;;;54.55;8.07;;;4.90;99.90;;;;;;5056357;28;20487;-74
2022/01/28 09:50:33;;;;;;;56.20;8.52;;;4.90;99.90;;;;;;5062657;28;20622;-74
2022/01/28 09:52:59;;;;;;;55.78;8.13;;;5.00;99.90;;;;;;5071130;28;20037;-75
2022/01/28 09:55:26;;;;;;;59.33;9.15;;;5.00;99.90;;;;;;5068396;28;20528;-75
2022/01/28 09:58:15;;;;;;;59.28;9.73;;;5.00;99.90;;;;;;5051651;28;20044;-75
2022/01/28 10:00:42;;;;;;;52.13;8.75;;;5.00;99.90;;;;;;5095811;28;20123;-75
2022/01/28 10:03:24;;;;;;;58.65;10.32;;;5.00;99.90;;;;;;5076848;28;20384;-75
2022/01/28 10:06:29;;;;;;;55.87;8.70;;;5.10;99.90;;;;;;5075067;28;20067;-74
2022/01/28 10:08:55;;;;;;;59.10;8.95;;;5.10;99.90;;;;;;5076129;28;20282;-75
2022/01/28 10:11:21;;;;;;;73.63;11.02;;;5.20;99.90;;;;;;5076736;28;20041;-74
2022/01/28 10:14:10;;;;;;;51.10;8.80;;;5.20;99.90;;;;;;5074642;28;20123;-75
2022/01/28 10:16:36;;;;;;;61.90;10.98;;;5.20;99.90;;;;;;5074968;28;20044;-74
2022/01/28 10:19:07;;;;;;;62.53;10.25;;;5.30;99.90;;;;;;5092809;28;20051;-74
2022/01/28 10:21:43;;;;;;;66.65;9.57;;;5.30;99.90;;;;;;5087681;28;20044;-74
2022/01/28 10:24:19;;;;;;;67.93;10.00;;;5.30;99.90;;;;;;5060684;28;20041;-73
2022/01/28 10:26:55;;;;;;;67.65;9.63;;;5.40;99.90;;;;;;5060744;28;20537;-74
2022/01/28 10:29:28;;;;;;;68.30;9.98;;;5.40;99.90;;;;;;5055459;28;20048;-74
2022/01/28 10:31:58;;;;;;;65.40;10.88;;;5.50;99.90;;;;;;5078097;28;20040;-74
2022/01/28 10:34:27;;;;;;;61.95;10.55;;;5.50;99.90;;;;;;5089482;28;20040;-75
2022/01/28 10:37:09;;;;;;;63.25;9.90;;;5.60;99.90;;;;;;5074521;28;20538;-74
2022/01/28 10:39:46;;;;;;;58.88;8.90;;;5.70;99.90;;;;;;5059130;28;20041;-74
2022/01/28 10:42:20;;;;;;;59.30;8.70;;;5.80;99.90;;;;;;5091063;28;20436;-75
2022/01/28 10:45:13;;;;;;;37.53;5.35;;;5.80;99.90;;;;;;5068640;28;20040;-74
2022/01/28 10:47:44;;;;;;;51.47;6.60;;;5.90;99.90;;;;;;5058171;28;20411;-73
2022/01/28 10:50:26;;;;;;;57.03;7.53;;;6.00;99.90;;;;;;5073439;28;20083;-74
2022/01/28 10:53:02;;;;;;;55.83;7.77;;;6.00;99.90;;;;;;5065197;28;20081;-74
2022/01/28 10:55:53;;;;;;;46.58;6.13;;;6.10;99.90;;;;;;5069252;28;20287;-74
2022/01/28 10:58:21;;;;;;;52.45;6.32;;;6.10;99.90;;;;;;5069649;28;20458;-75
2022/01/28 11:00:57;;;;;;;52.58;5.47;;;6.20;99.90;;;;;;5075937;28;20063;-75
2022/01/28 11:03:27;;;;;;;41.38;4.60;;;6.30;99.90;;;;;;5052767;28;20040;-74
2022/01/28 11:05:58;;;;;;;49.22;4.90;;;6.30;99.90;;;;;;5082769;28;20043;-75
2022/01/28 11:08:25;;;;;;;42.75;4.68;;;6.30;99.90;;;;;;5060403;28;20432;-75
2022/01/28 11:10:52;;;;;;;41.90;4.65;;;6.40;99.90;;;;;;5076166;28;20075;-75
2022/01/28 11:13:18;;;;;;;37.40;4.35;;;6.40;99.90;;;;;;5079730;28;20044;-74
2022/01/28 11:15:45;;;;;;;31.80;3.88;;;6.50;99.90;;;;;;5074411;28;20040;-75
2022/01/28 11:18:11;;;;;;;32.33;3.80;;;6.60;99.90;;;;;;5081364;28;20122;-74
2022/01/28 11:20:44;;;;;;;52.55;5.55;;;6.60;99.90;;;;;;5069589;28;20066;-74
2022/01/28 11:23:25;;;;;;;35.30;4.60;;;6.60;99.90;;;;;;5080753;28;20065;-73
2022/01/28 11:26:47;;;;;;;41.80;5.40;;;6.60;99.90;;;;;;5063958;28;20564;-73
2022/01/28 11:29:24;;;;;;;41.70;5.10;;;6.70;99.90;;;;;;5062200;28;20045;-74
2022/01/28 11:32:14;;;;;;;39.17;4.25;;;6.70;99.90;;;;;;5059050;28;20036;-73
2022/01/28 11:34:58;;;;;;;45.78;6.00;;;6.70;99.90;;;;;;5071320;28;20131;-73
2022/01/28 11:37:26;;;;;;;46.72;4.47;;;6.70;99.90;;;;;;5070895;28;20039;-73
2022/01/28 11:39:52;;;;;;;36.47;4.18;;;6.80;99.90;;;;;;5071170;28;20082;-72
2022/01/28 11:42:29;;;;;;;48.28;5.30;;;6.90;99.90;;;;;;5056508;28;20063;-72
2022/01/28 11:45:01;;;;;;;43.05;4.75;;;6.90;99.90;;;;;;5057899;28;20110;-73
2022/01/28 11:47:31;;;;;;;33.40;3.97;;;6.90;99.90;;;;;;5060515;28;20044;-74
2022/01/28 11:49:58;;;;;;;30.15;4.72;;;6.90;99.90;;;;;;5069912;28;20309;-73
2022/01/28 11:52:27;;;;;;;39.58;4.35;;;7.00;99.90;;;;;;5089399;28;20067;-73
2022/01/28 11:54:53;;;;;;;43.58;5.38;;;6.90;99.90;;;;;;5071739;28;20487;-73
2022/01/28 11:57:21;;;;;;;52.03;5.78;;;6.90;99.90;;;;;;5054601;28;20028;-73
2022/01/28 11:59:47;;;;;;;56.80;8.25;;;6.80;99.90;;;;;;5064719;28;20043;-73
2022/01/28 12:02:14;;;;;;;61.42;9.02;;;6.80;99.90;;;;;;5082002;28;20399;-73
2022/01/28 12:04:43;;;;;;;80.03;10.65;;;6.80;99.90;;;;;;5075126;28;20503;-74
2022/01/28 12:07:15;;;;;;;67.90;10.88;;;6.80;99.90;;;;;;5077421;28;20044;-74
2022/01/28 12:09:52;;;;;;;74.03;11.15;;;6.70;99.90;;;;;;5096042;28;20129;-74
2022/01/28 12:12:45;;;;;;;71.10;11.63;;;6.70;99.90;;;;;;5070438;28;20032;-75
2022/01/28 12:15:14;;;;;;;50.53;9.50;;;6.80;99.90;;;;;;5069026;28;20044;-73
2022/01/28 12:17:42;;;;;;;66.50;8.65;;;6.90;99.90;;;;;;5079320;28;20491;-73
2022/01/28 12:20:14;;;;;;;64.07;8.40;;;7.00;99.90;;;;;;5067420;28;20162;-73
2022/01/28 12:22:59;;;;;;;62.80;8.43;;;7.10;99.90;;;;;;5068351;28;20555;-75
2022/01/28 12:25:36;;;;;;;55.65;7.13;;;7.00;99.90;;;;;;5071012;28;20475;-73
2022/01/28 12:28:31;;;;;;;44.80;7.03;;;7.00;99.90;;;;;;5077042;28;20040;-74
2022/01/28 12:31:05;;;;;;;64.03;8.25;;;7.10;99.90;;;;;;5055455;28;20037;-75
2022/01/28 12:33:37;;;;;;;65.10;7.88;;;7.10;99.90;;;;;;5060506;28;20055;-75
2022/01/28 12:36:07;;;;;;;;;;;7.20;99.90;;;;;;5059871;28;20058;-76
2022/01/28 12:38:41;;;;;;;46.80;6.25;;;7.20;99.90;;;;;;5053816;28;20355;-75
2022/01/28 12:41:08;;;;;;;41.50;5.45;;;7.30;99.90;;;;;;5050733;28;20032;-75
2022/01/28 12:43:36;;;;;;;35.20;5.35;;;7.40;99.90;;;;;;5063189;28;20483;-74
2022/01/28 12:46:09;;;;;;;46.50;5.57;;;7.50;99.90;;;;;;5063616;28;20062;-73
2022/01/28 12:48:34;;;;;;;;;;;7.50;99.90;;;;;;5065526;28;20076;-74
2022/01/28 12:51:02;;;;;;;44.40;4.68;;;7.50;99.90;;;;;;5061369;28;19966;-74
2022/01/28 12:53:35;;;;;;;51.80;5.18;;;7.40;99.90;;;;;;5074824;28;20400;-73
2022/01/28 12:56:02;;;;;;;44.70;4.20;;;7.30;99.90;;;;;;5082731;28;20037;-73
2022/01/28 12:58:36;;;;;;;47.90;4.70;;;7.40;99.90;;;;;;5064805;28;20394;-76
2022/01/28 13:01:09;;;;;;;39.08;4.93;;;7.50;99.90;;;;;;5076193;28;20105;-78
2022/01/28 13:03:43;;;;;;;47.08;5.38;;;7.50;99.90;;;;;;5051116;28;20037;-74
2022/01/28 13:09:17;;;;;;;37.58;5.40;;;7.80;99.90;;;;;;5085663;28;20049;-75
2022/01/28 13:11:55;;;;;;;50.92;5.35;;;7.80;99.90;;;;;;5076550;28;20324;-74
2022/01/28 13:14:27;;;;;;;38.38;4.70;;;7.80;99.90;;;;;;5083020;28;20094;-74
2022/01/28 13:16:54;;;;;;;42.50;5.35;;;7.60;99.90;;;;;;5068701;28;20290;-78
2022/01/28 13:19:20;;;;;;;36.38;4.88;;;7.50;99.90;;;;;;5036048;28;20067;-75
2022/01/28 13:21:48;;;;;;;60.97;7.05;;;7.50;99.90;;;;;;5067634;28;20113;-75
2022/01/28 13:24:20;;;;;;;52.55;6.50;;;7.40;99.90;;;;;;5049290;28;20442;-73
2022/01/28 13:27:02;;;;;;;53.53;7.97;;;7.30;99.90;;;;;;5062014;28;20044;-74
2022/01/28 13:29:38;;;;;;;;;;;7.30;99.90;;;;;;5075363;28;20044;-72
2022/01/28 13:32:09;;;;;;;44.00;4.93;;;7.40;99.90;;;;;;5071663;28;19945;-74
2022/01/28 13:34:48;;;;;;;38.03;4.13;;;7.40;99.90;;;;;;5055856;28;20036;-72
2022/01/28 13:37:38;;;;;;;50.15;5.10;;;7.40;99.90;;;;;;5064628;28;20040;-72
2022/01/28 13:40:07;;;;;;;43.75;4.93;;;7.30;99.90;;;;;;5052313;28;20033;-73
2022/01/28 13:42:33;;;;;;;33.97;4.60;;;7.40;99.90;;;;;;5062395;28;20045;-74
2022/01/28 13:45:05;;;;;;;36.47;4.85;;;7.40;99.90;;;;;;5059551;28;20040;-73
2022/01/28 13:47:53;;;;;;;60.60;5.40;;;7.40;99.90;;;;;;5075576;28;20123;-74
2022/01/28 13:50:30;;;;;;;47.05;5.03;;;7.50;99.90;;;;;;5054588;28;20040;-75
2022/01/28 13:55:53;;;;;;;33.00;3.80;;;7.70;99.90;;;;;;5084227;28;20044;-77
2022/01/28 13:58:19;;;;;;;29.52;3.50;;;7.70;99.90;;;;;;5068669;28;20059;-75
2022/01/28 14:00:47;;;;;;;41.15;4.05;;;7.70;99.90;;;;;;5062544;28;20040;-75
2022/01/28 14:03:21;;;;;;;32.25;4.00;;;7.80;99.90;;;;;;5082601;28;20499;-73
2022/01/28 14:06:02;;;;;;;33.15;3.20;;;7.70;99.90;;;;;;5056037;28;20049;-76
2022/01/28 14:08:53;;;;;;;37.25;3.72;;;7.70;99.90;;;;;;5069218;28;20497;-73
2022/01/28 14:11:27;;;;;;;38.90;3.55;;;7.60;99.90;;;;;;5084465;28;20047;-73
2022/01/28 14:14:14;;;;;;;40.40;3.47;;;7.60;99.90;;;;;;5080842;28;20067;-73
2022/01/28 14:16:41;;;;;;;37.53;3.58;;;7.60;99.90;;;;;;5056951;28;20071;-74
2022/01/28 14:19:07;;;;;;;36.72;4.30;;;7.70;99.90;;;;;;5076168;28;20642;-73
2022/01/28 14:21:32;;;;;;;31.08;4.20;;;7.70;99.90;;;;;;5062225;28;20162;-74
2022/01/28 14:23:58;;;;;;;26.60;3.55;;;7.70;99.90;;;;;;5063310;28;20387;-72
2022/01/28 14:26:24;;;;;;;29.77;3.25;;;7.80;99.90;;;;;;5057531;28;20041;-75
2022/01/28 14:31:27;;;;;;;37.95;4.18;;;7.90;99.90;;;;;;5056803;28;20074;-71
2022/01/28 14:33:54;;;;;;;30.48;3.30;;;7.80;99.90;;;;;;5092750;28;20094;-74
2022/01/28 14:36:20;;;;;;;39.03;4.13;;;7.90;99.90;;;;;;5057391;28;20094;-78
2022/01/28 14:38:46;;;;;;;42.95;4.40;;;7.80;99.90;;;;;;5074024;28;20040;-76
2022/01/28 14:41:13;;;;;;;38.25;4.25;;;7.80;99.90;;;;;;5063956;28;20040;-73
2022/01/28 14:43:39;;;;;;;40.20;6.22;;;7.70;99.90;;;;;;5059178;28;20045;-76